Pulau Tioman — 3EYO9 — position and weather

sailwx.info

Track history (hours):
 
Tides and Currents Weather Stations Pressure Air Temp Water Temp Dewpoint Dewpoint Depression Visibility Wind Speed Wind Dir Waves Ship Positions

Pulau Tioman

Last reported at 2014-Oct-19 17:23 UTC. Time now 2014-Oct-23 12:29 UTC.
Position N 33°56' E 132°39'.

Length 120 m; draft 6.5 m.

Type: Cargo ship. MMSI: 356613000.

Date/timePositionNaut miles runAvg speedWind from/ knotsBaromVisibWave heightAir tempDewpointWater temp
2014-Oct-19 17:23N 33°56' E 132°39'11713.2
2014-Oct-19 08:27N 34°35' E 134°53'1314.3
2014-Oct-19 07:33N 34°36' E 135°08'8 7.8
2014-Oct-19 06:33N 34°41' E 135°15'0 0.1
2014-Oct-19 05:22N 34°41' E 135°15'0 0.0
2014-Oct-19 04:28N 34°41' E 135°15'0 0.0
2014-Oct-19 03:28N 34°41' E 135°15'0 0.0
2014-Oct-19 02:28N 34°41' E 135°15'0 0.0
2014-Oct-19 01:22N 34°41' E 135°15'0 0.0
2014-Oct-19 00:28N 34°41' E 135°15'0 0.0
2014-Oct-18 23:28N 34°41' E 135°15'0 0.3
2014-Oct-18 22:33N 34°41' E 135°15'3 2.8
2014-Oct-18 21:28N 34°38' E 135°17'0 0.0
2014-Oct-18 20:28N 34°38' E 135°17'0 0.0
2014-Oct-18 19:28N 34°38' E 135°17'0 0.0
2014-Oct-18 18:28N 34°38' E 135°17'0 0.0
2014-Oct-18 17:28N 34°38' E 135°17'0 0.0
2014-Oct-18 16:28N 34°38' E 135°17'0 0.0
2014-Oct-18 15:28N 34°38' E 135°17'0 0.0
2014-Oct-18 14:28N 34°38' E 135°17'0 0.0
2014-Oct-18 13:28N 34°38' E 135°17'0 0.0
2014-Oct-18 12:28N 34°38' E 135°17'0 0.0
2014-Oct-18 11:28N 34°38' E 135°17'0 0.1
2014-Oct-18 10:28N 34°38' E 135°17'0 0.1
2014-Oct-18 09:23N 34°38' E 135°17'5 5.6
2014-Oct-18 08:33N 34°34' E 135°15'1312.6
2014-Oct-18 07:33N 34°24' E 135°05'1313.3
2014-Oct-18 06:34N 34°12' E 134°59'1514.0
2014-Oct-18 05:28N 33°57' E 134°59'24512.9
2014-Oct-17 10:33N 35°08' E 139°43'1212.2
2014-Oct-17 09:33N 35°20' E 139°42'7 6.8
2014-Oct-17 08:33N 35°27' E 139°41'0 0.0
2014-Oct-17 07:33N 35°27' E 139°41'0 0.0
2014-Oct-17 06:30N 35°27' E 139°41'0 0.0
2014-Oct-17 05:34N 35°27' E 139°41'0 0.0
2014-Oct-17 04:33N 35°27' E 139°41'0 0.0
2014-Oct-17 03:31N 35°27' E 139°41'0 0.0
2014-Oct-17 02:33N 35°27' E 139°41'0 0.0
2014-Oct-17 01:33N 35°27' E 139°41'2 1.9
2014-Oct-17 00:33N 35°26' E 139°43'8 8.1
2014-Oct-16 23:33N 35°18' E 139°45'1212.0
2014-Oct-16 22:33N 35°06' E 139°46'247 6.6
2014-Oct-15 09:25N 33°59' E 134°58'1214.0
2014-Oct-15 08:33N 34°11' E 134°58'1413.8
2014-Oct-15 07:33N 34°24' E 135°00'1212.3
2014-Oct-15 06:33N 34°37' E 135°01'1511.6
2014-Oct-15 05:13N 34°34' E 134°43'812.3
2014-Oct-15 04:32N 34°41' E 134°49'3 2.3
2014-Oct-15 03:21N 34°43' E 134°51'0 0.0
2014-Oct-15 02:27N 34°43' E 134°51'0 0.0
2014-Oct-15 01:33N 34°43' E 134°51'0 0.0
2014-Oct-15 00:33N 34°43' E 134°51'0 0.4
2014-Oct-14 23:33N 34°43' E 134°51'3 0.7
2014-Oct-14 18:33N 34°40' E 134°48'20111.8
2014-Oct-14 01:33N 34°02' E 130°49'1411.6
2014-Oct-14 00:20N 33°58' E 130°32'911.0
2014-Oct-13 23:31N 33°55' E 130°22'1010.5
2014-Oct-13 22:33N 33°50' E 130°11'10 9.7
2014-Oct-13 21:33N 33°45' E 130°02'10 9.9
2014-Oct-13 20:32N 33°40' E 129°51'  
Track history (hours):
 
Tides and Currents Weather Stations Pressure Air Temp Water Temp Dewpoint Dewpoint Depression Visibility Wind Speed Wind Dir Waves Ship Positions

Pulau Tioman

Last reported at 2014-Oct-19 17:23 UTC. Time now 2014-Oct-23 12:29 UTC.
Position N 33°56' E 132°39'.

Length 120 m; draft 6.5 m.

Type: Cargo ship. MMSI: 356613000.

Date/timePositionNaut miles runAvg speedWind from/ knotsBaromVisibWave heightAir tempDewpointWater temp
2014-Oct-19 17:23N 33°56' E 132°39'11713.2
2014-Oct-19 08:27N 34°35' E 134°53'1314.3
2014-Oct-19 07:33N 34°36' E 135°08'8 7.8
2014-Oct-19 06:33N 34°41' E 135°15'0 0.1
2014-Oct-19 05:22N 34°41' E 135°15'0 0.0
2014-Oct-19 04:28N 34°41' E 135°15'0 0.0
2014-Oct-19 03:28N 34°41' E 135°15'0 0.0
2014-Oct-19 02:28N 34°41' E 135°15'0 0.0
2014-Oct-19 01:22N 34°41' E 135°15'0 0.0
2014-Oct-19 00:28N 34°41' E 135°15'0 0.0
2014-Oct-18 23:28N 34°41' E 135°15'0 0.3
2014-Oct-18 22:33N 34°41' E 135°15'3 2.8
2014-Oct-18 21:28N 34°38' E 135°17'0 0.0
2014-Oct-18 20:28N 34°38' E 135°17'0 0.0
2014-Oct-18 19:28N 34°38' E 135°17'0 0.0
2014-Oct-18 18:28N 34°38' E 135°17'0 0.0
2014-Oct-18 17:28N 34°38' E 135°17'0 0.0
2014-Oct-18 16:28N 34°38' E 135°17'0 0.0
2014-Oct-18 15:28N 34°38' E 135°17'0 0.0
2014-Oct-18 14:28N 34°38' E 135°17'0 0.0
2014-Oct-18 13:28N 34°38' E 135°17'0 0.0
2014-Oct-18 12:28N 34°38' E 135°17'0 0.0
2014-Oct-18 11:28N 34°38' E 135°17'0 0.1
2014-Oct-18 10:28N 34°38' E 135°17'0 0.1
2014-Oct-18 09:23N 34°38' E 135°17'5 5.6
2014-Oct-18 08:33N 34°34' E 135°15'1312.6
2014-Oct-18 07:33N 34°24' E 135°05'1313.3
2014-Oct-18 06:34N 34°12' E 134°59'1514.0
2014-Oct-18 05:28N 33°57' E 134°59'24512.9
2014-Oct-17 10:33N 35°08' E 139°43'1212.2
2014-Oct-17 09:33N 35°20' E 139°42'7 6.8
2014-Oct-17 08:33N 35°27' E 139°41'0 0.0
2014-Oct-17 07:33N 35°27' E 139°41'0 0.0
2014-Oct-17 06:30N 35°27' E 139°41'0 0.0
2014-Oct-17 05:34N 35°27' E 139°41'0 0.0
2014-Oct-17 04:33N 35°27' E 139°41'0 0.0
2014-Oct-17 03:31N 35°27' E 139°41'0 0.0
2014-Oct-17 02:33N 35°27' E 139°41'0 0.0
2014-Oct-17 01:33N 35°27' E 139°41'2 1.9
2014-Oct-17 00:33N 35°26' E 139°43'8 8.1
2014-Oct-16 23:33N 35°18' E 139°45'1212.0
2014-Oct-16 22:33N 35°06' E 139°46'247 6.6
2014-Oct-15 09:25N 33°59' E 134°58'1214.0
2014-Oct-15 08:33N 34°11' E 134°58'1413.8
2014-Oct-15 07:33N 34°24' E 135°00'1212.3
2014-Oct-15 06:33N 34°37' E 135°01'1511.6
2014-Oct-15 05:13N 34°34' E 134°43'812.3
2014-Oct-15 04:32N 34°41' E 134°49'3 2.3
2014-Oct-15 03:21N 34°43' E 134°51'0 0.0
2014-Oct-15 02:27N 34°43' E 134°51'0 0.0
2014-Oct-15 01:33N 34°43' E 134°51'0 0.0
2014-Oct-15 00:33N 34°43' E 134°51'0 0.4
2014-Oct-14 23:33N 34°43' E 134°51'3 0.7
2014-Oct-14 18:33N 34°40' E 134°48'20111.8
2014-Oct-14 01:33N 34°02' E 130°49'1411.6
2014-Oct-14 00:20N 33°58' E 130°32'911.0
2014-Oct-13 23:31N 33°55' E 130°22'1010.5
2014-Oct-13 22:33N 33°50' E 130°11'10 9.7
2014-Oct-13 21:33N 33°45' E 130°02'10 9.9
2014-Oct-13 20:32N 33°40' E 129°51'  

Dump ship's entire track history